x

9440910 - Toke Point, Wa (tokw1) Weather Station

8:30 - Wed 26th Nov 2014 All times are PST. -8 hours from GMT.

  • Wind
    21mph, 25mph gusts
  • Aire Temp 56°f
  • Sea Pressure 1012.8mb
  • 9440910 - Toke Point, Wa
  • 9440910 - Toke Point, Wa

More Historic Weather Station data

Upgrade to MSW Pro to gain access to the past 30 days of data for over 8000 Wavebouys and Weather Stations around the globe.

Join Pro

Comparision Forecast

View Surf forecast
   
mié 11/26 8:30 21 25 mph 1012.8mb 56f
8:24 23 30 mph 1012.7mb 56f
8:18 22 26 mph 1012.8mb 56f
8:12 22 29 mph 1013mb 56f
8:06 22 28 mph 1012.9mb 56f
8:00 23 31 mph 1013mb 56f
7:54 24 29 mph 1013mb 56f
7:48 26 32 mph 1013.1mb 56f
7:42 22 30 mph 1013.2mb 56f
7:36 23 29 mph 1013.2mb 56f
7:30 22 30 mph 1012.8mb 56f
7:24 25 32 mph 1013.1mb 56f
7:18 25 30 mph 1012.9mb 56f
7:12 24 30 mph 1012.8mb 56f
7:06 23 29 mph 1012.9mb 56f
7:00 24 30 mph 1013mb 57f
6:54 25 30 mph 1013.1mb 56f
6:48 24 30 mph 1013.2mb 56f
6:42 21 26 mph 1013.7mb 56f
6:36 22 28 mph 1013.4mb 56f
6:30 22 25 mph 1013.4mb 56f
6:24 20 23 mph 1013.9mb 56f
6:18 18 22 mph 1014mb 56f
6:12 17 23 mph 1014.2mb 56f
6:06 15 18 mph 1014.2mb 55f
6:00 13 15 mph 1014.4mb 55f
5:54 11 13 mph 1014.6mb 55f
5:48 9 11 mph 1014.6mb 55f
5:42 8 10 mph 1014.7mb 55f
5:36 8 10 mph 1014.7mb 55f
5:30 9 11 mph 1014.8mb 55f
5:24 8 9 mph 1014.8mb 55f
5:18 5 6 mph 1014.8mb 55f
5:12 5 6 mph 1015mb 55f
4:54 3
mph
1015.2mb 54f
4:48 3 5 mph 1015.2mb 54f
4:42 5 6 mph 1015mb 54f
4:36 6
mph
1015mb 54f
4:24 3 5 mph 1015.5mb 54f
4:18 3 5 mph 1015.4mb 54f
4:12 6 8 mph 1015.5mb 55f
4:06 6 7 mph 1015.6mb 54f
4:00 6
mph
1015.6mb 54f
3:54 3 6 mph 1015.8mb 54f
3:48 2 3 mph 1015.9mb 55f
3:42  -  3 mph 1015.9mb 55f
3:36 3 5 mph 1016.2mb 54f
3:30 1 3 mph 1016.2mb 54f
3:24 2 3 mph 1016.2mb 54f
3:18 2 3 mph 1016.5mb 54f
3:12 3
mph
1016.6mb 54f
3:06 2 3 mph 1016.9mb 54f
2:54 3 6 mph 1016.7mb 53f
2:48 5 7 mph 1016.7mb 54f
2:42 5 7 mph 1016.9mb 54f
2:36 6 7 mph 1016.9mb 54f
2:24 7 9 mph 1016.7mb 54f
2:18 7 9 mph 1017mb 54f
2:06 8 10 mph 1017.6mb 54f
2:00 8 10 mph 1017.8mb 54f
1:54 6 9 mph 1018mb 54f
1:48 6 9 mph 1018.2mb 54f
1:42 6 9 mph 1018.4mb 54f
1:36 6 10 mph 1018.3mb 54f
1:30 6 10 mph 1018.2mb 54f
1:24 8 10 mph 1017.9mb 54f
1:18 8 10 mph 1017.9mb 54f
1:12 8 11 mph 1017.9mb 54f
1:06 10 14 mph 1018mb 54f
1:00 8 11 mph 1018.3mb 54f
12:54 9 11 mph 1018.3mb 54f
12:48 8 11 mph 1018.4mb 54f
12:42 8 13 mph 1018.4mb 54f
12:36 7 11 mph 1018.5mb 54f
12:30 7 10 mph 1018.8mb 54f
12:24 6 10 mph 1018.9mb 54f
12:18 6 8 mph 1019mb 54f
12:12 2 7 mph 1019.2mb 53f
12:06 6 8 mph 1019.2mb 53f
12:00 6 8 mph 1019.4mb 53f
11:54 6 9 mph 1019.3mb 53f
11:48 7 9 mph 1019.3mb 53f
11:42 7 9 mph 1019.5mb 53f
11:36 7 8 mph 1019.5mb 53f
11:30 6 7 mph 1019.5mb 53f
11:24 5 7 mph 1019.6mb 53f
11:18 6 8 mph 1019.7mb 53f
11:12 6 8 mph 1020mb 53f
11:06 5 7 mph 1020.2mb 53f
11:00 3 6 mph 1019.9mb 53f
10:54 5 8 mph 1019.9mb 53f
10:48 5 11 mph 1020.3mb 53f
10:42 7 10 mph 1020.5mb 53f
10:36 9 11 mph 1020.3mb 53f
10:30 9 13 mph 1020.1mb 53f
10:24 7 13 mph 1020.3mb 53f
10:18 10 13 mph 1020.1mb 53f
10:12 9 13 mph 1020.1mb 53f
10:00 8 13 mph 1020.6mb 53f
9:54 10 14 mph 1020.4mb 53f
9:48 11 15 mph 1020.5mb 53f
9:42 9 11 mph 1020.3mb 53f
9:36 9 13 mph 1020.2mb 53f
9:30 9 11 mph 1020.3mb 53f
9:24 10 14 mph 1020.3mb 53f
9:18 11 14 mph 1020.2mb 53f
9:12 10 13 mph 1020.3mb 53f
9:06 9 11 mph 1020.6mb 53f
9:00 8 10 mph 1020.6mb 53f
8:54 7 9 mph 1020.6mb 53f
8:42 8 10 mph 1020.5mb 52f
8:36 8 10 mph 1020.7mb 53f
8:30 8 11 mph 1020.9mb 53f
8:24 10 13 mph 1020.9mb 53f
8:18 10 13 mph 1020.6mb 53f
8:12 11 13 mph 1020.6mb 53f
8:06 11 14 mph 1020.6mb 53f
8:00 13 16 mph 1020.7mb 53f
7:54 16 20 mph 1020.6mb 53f
7:48 17 22 mph 1020.6mb 53f
7:42 17 20 mph 1020.7mb 53f
7:36 14 17 mph 1020.9mb 53f
7:30 15 18 mph 1020.9mb 53f
7:24 13 16 mph 1021mb 53f
7:18 14 18 mph 1021mb 53f
7:12 15 18 mph 1021mb 53f
7:06 14 17 mph 1021.1mb 53f
7:00 15 18 mph 1021.1mb 53f
6:54 15 21 mph 1021.1mb 53f
6:48 14 18 mph 1021.1mb 53f
6:42 13 16 mph 1021.1mb 53f
6:36 13 15 mph 1021.2mb 53f
6:30 13 15 mph 1021.3mb 53f
6:24 13 15 mph 1021.2mb 53f
6:18 13 16 mph 1021.2mb 53f
6:12 13 16 mph 1021.1mb 53f
6:06 13 16 mph 1021mb 53f
6:00 13 16 mph 1021.1mb 53f
5:54 13 16 mph 1021.1mb 53f
5:48 13 17 mph 1021.1mb 53f
5:42 14 18 mph 1021.2mb 53f
5:36 16 20 mph 1021.1mb 54f
5:30 17 21 mph 1021.3mb 54f
5:24 16 21 mph 1021.6mb 54f
5:18 16 20 mph 1021.6mb 54f
5:12 16 20 mph 1021.7mb 54f
5:06 15 20 mph 1021.7mb 54f
5:00 15 18 mph 1021.7mb 54f
4:54 13 16 mph 1021.8mb 54f
4:48 13 17 mph 1021.8mb 54f
4:42 11 15 mph 1022mb 54f
4:36 13 16 mph 1021.9mb 54f
4:30 13 20 mph 1022mb 54f
4:24 15 18 mph 1022mb 54f
4:18 15 20 mph 1021.9mb 54f
4:12 14 20 mph 1021.9mb 53f
4:06 16 20 mph 1021.9mb 54f
4:00 17 22 mph 1022mb 54f
3:54 17 21 mph 1022.1mb 54f
3:48 17 22 mph 1022.2mb 53f
3:42 18 22 mph 1022.3mb 54f
3:36 17 21 mph 1022.3mb 54f
3:30 15 20 mph 1022.3mb 54f
3:24 15 22 mph 1022.5mb 53f
3:18 14 18 mph 1022.6mb 53f
3:12 16 18 mph 1022.7mb 54f
3:06 14 20 mph 1022.8mb 53f
3:00 14 17 mph 1022.8mb 53f
2:54 14 17 mph 1023mb 53f
2:48 13 18 mph 1023mb 53f
2:42 16 20 mph 1022.9mb 53f
2:36 14 18 mph 1023mb 53f
2:30 14 20 mph 1023mb 53f
2:24 14 18 mph 1023.1mb 53f
2:18 15 21 mph 1023.1mb 53f
2:12 14 17 mph 1023mb 53f
2:06 11 15 mph 1023mb 53f
2:00 13 18 mph 1023mb 54f
1:54 15 20 mph 1023.1mb 54f
1:48 14 20 mph 1023.2mb 54f
1:42 15 18 mph 1023.3mb 54f
1:36 16 22 mph 1023.4mb 54f
1:30 13 20 mph 1023.4mb 54f
1:24 14 20 mph 1023.3mb 54f
1:18 14 17 mph 1023.3mb 54f
1:12 14 17 mph 1023.3mb 54f
1:06 13 17 mph 1023.3mb 54f
1:00 14 20 mph 1023.5mb 54f
12:54 11 15 mph 1023.5mb 54f
12:48 10 16 mph 1023.7mb 54f
12:42 9 15 mph 1023.7mb 54f
12:36 10 16 mph 1023.7mb 55f
12:30 10 16 mph 1023.7mb 55f
12:24 10 15 mph 1023.7mb 54f
12:18 10 16 mph 1023.8mb 54f
12:12 9 15 mph 1023.8mb 54f
12:06 10 15 mph 1023.7mb 54f
12:00 10 15 mph 1023.8mb 54f
mar 11/25 11:54 9 16 mph 1024mb 55f
11:48 9 14 mph 1023.9mb 55f
11:42 8 15 mph 1024mb 55f
11:36 9 16 mph 1023.9mb 55f
11:30 11 18 mph 1023.9mb 55f
11:24 13 17 mph 1023.8mb 55f
11:18 10 17 mph 1023.8mb 55f
11:12 10 17 mph 1023.9mb 55f
11:06 11 18 mph 1023.7mb 55f
11:00 11 16 mph 1023.7mb 55f
10:54 9 17 mph 1023.8mb 55f
10:48 11 18 mph 1023.7mb 55f
10:42 9 16 mph 1023.7mb 55f
10:36 9 16 mph 1023.7mb 55f
10:30 8 17 mph 1023.7mb 55f
10:24 8 17 mph 1023.7mb 55f
10:18 10 15 mph 1023.9mb 55f
10:12 11 18 mph 1023.8mb 55f
10:06 11 16 mph 1023.8mb 55f
10:00 10 17 mph 1023.7mb 55f
9:54 9 17 mph 1023.8mb 55f
9:48 9 17 mph 1023.7mb 55f
9:42 13 17 mph 1023.6mb 55f
9:36 11 18 mph 1023.6mb 55f
9:30 13 18 mph 1023.6mb 55f
9:24 14 17 mph 1023.4mb 55f
9:18 14 18 mph 1023.3mb 55f
9:12 13 18 mph 1023.2mb 55f
9:06 11 15 mph 1023.2mb 55f
9:00 11 16 mph 1023.3mb 55f
8:54 10 17 mph 1023.4mb 55f
8:48 11 17 mph 1023.4mb 55f
8:42 10 16 mph 1023.3mb 55f
8:36 11 17 mph 1023.2mb 55f
8:30 10 18 mph 1023.4mb 55f
8:24 10 17 mph 1023.4mb 55f
8:18 10 17 mph 1023.4mb 55f
8:12 9 20 mph 1023.4mb 55f
8:06 10 15 mph 1023.4mb 55f
8:00 9 20 mph 1023.4mb 55f
7:54 11 16 mph 1023.4mb 55f
7:48 10 17 mph 1023.4mb 55f
7:42 10 17 mph 1023.4mb 55f
7:36 9 18 mph 1023.5mb 56f
7:30 9 15 mph 1023.6mb 56f
7:24 10 17 mph 1023.6mb 56f
7:18 8 16 mph 1023.6mb 56f
7:12 8 20 mph 1023.6mb 56f
7:06 13 20 mph 1023.4mb 56f
7:00 13 18 mph 1023.4mb 56f
6:54 11 20 mph 1023.5mb 56f
6:48 14 21 mph 1023.5mb 56f
6:42 13 20 mph 1023.6mb 56f
6:36 14 21 mph 1023.6mb 56f
6:30 10 21 mph 1023.7mb 56f
6:24 14 21 mph 1023.7mb 56f
6:18 10 18 mph 1023.7mb 56f
6:12 13 17 mph 1023.8mb 56f
6:06 9 18 mph 1023.8mb 56f
6:00 9 18 mph 1023.8mb 56f
5:54 9 17 mph 1023.9mb 56f
5:48 8 17 mph 1023.9mb 56f
5:42 6 15 mph 1024mb 56f
5:36 6 14 mph 1024mb 56f
5:30 9 16 mph 1024mb 56f
5:24 9 16 mph 1024.1mb 56f
5:18 8 17 mph 1024.1mb 56f
5:12 3 15 mph 1024.3mb 56f
5:06 8 15 mph 1024.1mb 56f
5:00 8 21 mph 1024mb 56f
4:54 10 20 mph 1024mb 56f
4:48 9 18 mph 1023.9mb 56f
4:42 8 16 mph 1023.9mb 56f
4:36 10 17 mph 1023.9mb 56f
4:30 9 16 mph 1023.9mb 56f
4:24 8 16 mph 1023.9mb 56f
4:18 8 16 mph 1023.9mb 56f
4:12 9 16 mph 1023.9mb 56f
4:06 7 16 mph 1023.9mb 56f
4:00 7 15 mph 1024mb 56f
3:54 5 16 mph 1024mb 56f
3:48 9 18 mph 1024mb 56f
3:42 14 18 mph 1024.1mb 56f
3:36 11 20 mph 1024.1mb 56f
3:30 8 16 mph 1024.2mb 56f
3:24 7 14 mph 1024.2mb 56f
3:18 7 15 mph 1024.3mb 56f
3:12 7 14 mph 1024.2mb 56f
3:06 6 16 mph 1024.2mb 56f
3:00 8 16 mph 1024.1mb 56f
2:54 10 17 mph 1024.1mb 56f
2:48 9 17 mph 1024.2mb 56f
2:42 10 17 mph 1024.1mb 56f
2:36 9 14 mph 1024.1mb 56f
2:30 5 10 mph 1024.2mb 56f
2:24 6 14 mph 1024.2mb 56f
2:18 2 13 mph 1024.2mb 56f
2:12 3 8 mph 1024.3mb 56f
2:06 3 11 mph 1024.2mb 56f
2:00 6 20 mph 1024.1mb 56f
1:54 7 15 mph 1024.1mb 56f
1:48 7 14 mph 1024.2mb 56f
1:42 7 15 mph 1024.2mb 56f
1:36 5 15 mph 1024.3mb 56f
1:30 6 14 mph 1024.4mb 56f
1:24 6 16 mph 1024.4mb 56f
1:18 9 17 mph 1024.4mb 56f
1:12 8 17 mph 1024.4mb 56f
1:06 9 16 mph 1024.4mb 56f
1:00 7 16 mph 1024.5mb 56f
12:54 9 20 mph 1024.4mb 56f
12:48 9 20 mph 1024.4mb 56f
12:42 9 18 mph 1024.3mb 56f
12:36 10 21 mph 1024.3mb 56f
12:30 8 21 mph 1024.4mb 56f
12:24 11 20 mph 1024.3mb 56f
12:18 13 22 mph 1024.4mb 56f
12:12 9 16 mph 1024.4mb 56f
12:06 9 20 mph 1024.6mb 56f
12:00 8 16 mph 1024.6mb 56f
11:54 9 20 mph 1024.6mb 56f
11:48 9 18 mph 1024.6mb 56f
11:42 9 17 mph 1024.7mb 56f
11:36 11 20 mph 1024.7mb 56f
11:30 9 18 mph 1024.7mb 56f
11:24 11 17 mph 1024.8mb 56f
11:18 10 16 mph 1024.9mb 56f
11:12 13 18 mph 1024.9mb 56f
11:06 11 18 mph 1025mb 56f
11:00 10 20 mph 1024.9mb 56f
10:54 14 20 mph 1024.8mb 56f
10:48 13 20 mph 1024.7mb 56f
10:42 7 15 mph 1024.9mb 56f
10:36 7 18 mph 1024.9mb 56f
10:30 9 17 mph 1024.8mb 55f
10:24 9 18 mph 1024.8mb 56f
10:18 10 18 mph 1024.6mb 56f
10:12 10 16 mph 1024.4mb 55f
10:06 11 18 mph 1024.4mb 56f
10:00 10 16 mph 1024.4mb 55f
9:54 10 18 mph 1024.3mb 56f
9:48 9 15 mph 1024.2mb 55f
9:42 7 17 mph 1024.4mb 55f
9:36 11 18 mph 1024.2mb 55f
9:30 8 16 mph 1024.3mb 56f
9:24 7 21 mph 1024.2mb 56f
9:18 6 14 mph 1024.1mb 56f
9:06 7 16 mph 1024.1mb 56f
9:00 8 14 mph 1024.2mb 56f
8:54 7 16 mph 1024.1mb 56f
8:48 7 14 mph 1024mb 55f
8:42 3 11 mph 1023.8mb 55f
8:36 5 10 mph 1023.8mb 55f
8:30 5 11 mph 1023.7mb 55f
8:24 7 17 mph 1023.6mb 56f
8:18 6 14 mph 1023.4mb 56f
8:12 6 13 mph 1023.3mb 55f
8:06 7 14 mph 1023.4mb 56f
8:00 3 10 mph 1023.4mb 56f
7:54 2 11 mph 1023.4mb 56f
7:48 6 18 mph 1023.3mb 56f
7:42 2 10 mph 1023.4mb 56f
7:36 7 15 mph 1023.4mb 55f
7:30 3 7 mph 1023.5mb 56f
7:24 2 13 mph 1023.4mb 55f
7:18 8 16 mph 1023.4mb 55f
7:12 3 10 mph 1023.2mb 55f
7:06 2 7 mph 1023.2mb 55f
7:00 2 7 mph 1023.2mb 56f
6:54 2 8 mph 1023.1mb 56f
6:48 2 9 mph 1023mb 55f
6:42 2 7 mph 1022.9mb 55f
6:36 2 8 mph 1022.8mb 55f
6:30 3 9 mph 1022.7mb 55f
6:24 3 7 mph 1022.6mb 55f
6:18 3 8 mph - -
6:12 2 8 mph - -
6:06 3 8 mph - -
6:00 3 10 mph 1022.4mb 55f
5:54 3 8 mph 1022.3mb 55f
5:48 3 8 mph 1022.3mb 55f
5:42 3 9 mph 1022.3mb 55f
5:36 2 7 mph 1022.3mb 55f
5:30 2 8 mph 1022.3mb 55f
5:24 2 13 mph 1022.2mb 55f
5:18 3 8 mph 1022.2mb 55f
5:12 2 11 mph 1022.2mb 55f
5:06 5 9 mph 1022mb 55f
5:00 2 13 mph 1022mb 55f
4:54 3 13 mph 1022mb 55f
4:48 5 10 mph 1022mb 55f
4:42 6 14 mph 1022mb 55f
4:36 6 13 mph 1022mb 55f
4:30 2 7 mph 1022.1mb 55f
4:24 3 8 mph 1022.2mb 55f
4:18 2 8 mph 1022.3mb 55f
4:12 2 7 mph 1022.3mb 55f
4:06 3 10 mph 1022.4mb 55f
4:00 3 7 mph 1022.4mb 54f
3:54 5 8 mph 1022.5mb 54f
3:48 3 7 mph 1022.6mb 54f
3:42 1 7 mph 1022.6mb 54f
3:36 2 9 mph 1022.7mb 54f
3:30 2 7 mph 1022.6mb 54f
3:24 2 5 mph 1022.7mb 54f
3:18 2 6 mph 1022.8mb 54f
3:12 2 6 mph 1022.7mb 54f
3:06 2 8 mph 1022.7mb 54f
3:00 2 7 mph 1022.7mb 54f
2:54 3 8 mph 1022.9mb 54f
2:48 5 7 mph 1023mb 54f
2:42 2 6 mph 1022.8mb 54f
2:36 2 6 mph 1022.5mb 54f
2:30 2 6 mph 1022.4mb 54f
2:24 2 8 mph 1022.5mb 54f
2:18 3 7 mph 1022.6mb 54f
2:12 2 6 mph 1022.5mb 54f
2:06 2 8 mph 1022.4mb 54f
2:00 2 8 mph 1022.3mb 54f
1:54 1 6 mph 1022.1mb 54f
1:48 2 10 mph 1022mb 54f
1:42 3 8 mph 1021.9mb 54f
1:36 5 10 mph 1022mb 54f
1:30 3 7 mph 1022.1mb 54f
1:24 2 6 mph 1022.3mb 54f
1:18 1 5 mph 1022.3mb 54f
1:12 1 6 mph 1022.3mb 54f
1:06 2 5 mph 1022.5mb 54f
1:00 3 7 mph 1022.7mb 54f
12:54 3 8 mph 1022.8mb 54f
12:48 3 7 mph 1022.6mb 54f
12:42 3 6 mph 1022.6mb 54f
12:36 2 6 mph 1022.6mb 54f
12:30 1 5 mph 1022.6mb 54f
12:24 1 6 mph 1022.6mb 54f
12:18 2 6 mph 1022.7mb 54f
12:12 3 9 mph 1022.7mb 54f
12:06 3 10 mph 1022.7mb 54f
12:00 7 13 mph 1022.8mb 54f
lun 11/24 11:54 6 10 mph 1022.8mb 54f
11:48 6 9 mph 1022.7mb 54f
11:42 6 14 mph 1022.7mb 54f
11:36 9 15 mph 1022.8mb 54f
11:30 13 16 mph 1022.9mb 54f
11:24 13 16 mph 1023mb 54f
11:18 11 15 mph 1022.9mb 54f
11:12 10 15 mph 1022.7mb 54f
11:06 14 18 mph 1022.7mb 54f
11:00 13 17 mph 1022.7mb 54f
10:54 13 16 mph 1022.7mb 54f
10:48 14 18 mph 1022.6mb 54f
10:42 13 17 mph 1022.5mb 54f
10:36 13 21 mph 1022.3mb 54f
10:30 15 22 mph 1022.2mb 55f
10:24 14 18 mph 1022mb 54f
10:18 13 17 mph 1022.1mb 54f
10:12 14 20 mph 1022.1mb 54f
10:06 16 21 mph 1022mb 54f
10:00 8 16 mph 1021.8mb 54f
9:54 7 14 mph 1021.8mb 54f
9:48 3 10 mph 1021.7mb 54f
9:42 3 8 mph 1021.5mb 54f
9:36 3 8 mph 1021.4mb 54f
9:30 2 7 mph 1021.2mb 54f
9:24 3 9 mph 1021.2mb 54f
9:18 5 13 mph 1021.3mb 54f
9:12 5 9 mph 1021.3mb 54f
9:06 2 9 mph 1021.2mb 54f
9:00 2 8 mph 1021.1mb 54f
8:54 2 9 mph 1021.3mb 54f
8:48 2 9 mph 1021.4mb 54f
8:42 2 9 mph 1021.4mb 54f
8:36 3 13 mph 1021.4mb 54f
8:30 3 14 mph 1021.3mb 54f
8:24 7 15 mph 1021.1mb 54f
8:18 5 14 mph 1021.1mb 55f
8:12 10 21 mph 1021.1mb 55f
8:06 13 21 mph 1021.1mb 55f
8:00 6 17 mph 1021.1mb 54f
7:54 13 23 mph 1021mb 54f
7:48 10 20 mph 1021mb 54f
7:42 11 21 mph 1021mb 54f
7:36 10 24 mph 1021.2mb 54f
7:30 13 24 mph 1021.1mb 54f
7:24 18 23 mph 1021mb 54f
7:18 17 24 mph 1021mb 54f
7:12 17 28 mph 1021mb 54f
7:06 17 23 mph 1020.9mb 54f
7:00 14 25 mph 1021mb 54f
6:54 16 29 mph 1020.9mb 54f
6:48 26 34 mph 1020.7mb 54f
6:42 26 36 mph 1020.5mb 54f
6:36 18 30 mph 1020.6mb 53f
6:30 23 30 mph 1020.5mb 53f
6:24 24 31 mph 1020.3mb 53f
6:18 25 30 mph 1020.3mb 53f
6:12 24 31 mph 1020.5mb 53f
6:06 25 31 mph 1020.4mb 53f
6:00 23 31 mph 1020.5mb 53f
5:54 23 32 mph 1020.5mb 52f
5:48 22 30 mph 1020.7mb 52f
5:42 21 26 mph 1020.7mb 52f
5:36 21 26 mph 1020.7mb 52f
5:30 23 29 mph 1020.7mb 51f
5:24 22 28 mph 1020.8mb 51f
5:18 22 28 mph 1020.8mb 51f
5:12 23 29 mph 1020.8mb 51f
5:06 23 30 mph 1020.8mb 51f
5:00 23 30 mph 1020.9mb 51f
4:54 22 29 mph 1020.9mb 51f
4:48 22 28 mph 1021.1mb 51f
4:42 22 28 mph 1021.2mb 51f
4:36 22 29 mph 1021.2mb 50f
4:30 24 29 mph 1021.2mb 50f
4:24 22 26 mph 1021.3mb 51f
4:18 22 28 mph 1021.4mb 50f
4:12 20 24 mph 1021.4mb 50f
4:06 17 22 mph 1021.5mb 50f
4:00 14 20 mph 1021.7mb 50f
3:54 15 20 mph 1021.5mb 50f
3:48 17 20 mph 1021.6mb 50f
3:42 16 20 mph 1021.8mb 50f
3:36 15 20 mph 1021.9mb 50f
3:30 14 17 mph 1022mb 50f
3:24 15 17 mph 1022.1mb 50f
3:18 13 16 mph 1022.2mb 50f
3:12 14 17 mph 1022.1mb 50f
3:06 15 18 mph 1022.2mb 50f
3:00 16 20 mph 1022.3mb 50f
2:54 17 21 mph 1022.5mb 50f
2:48 16 20 mph 1022.6mb 51f
2:42 15 18 mph 1022.7mb 51f
2:36 15 17 mph 1022.9mb 51f
2:30 14 16 mph 1023.2mb 51f
2:24 15 18 mph 1023.3mb 51f
2:18 16 18 mph 1023.5mb 51f
2:12 17 21 mph 1023.5mb 51f
2:06 16 21 mph 1023.5mb 51f
1:54 16 17 mph 1023.9mb 52f
1:48 14 16 mph 1024.1mb 52f
1:42 13 15 mph 1024.3mb 52f
1:36 14 16 mph 1024.2mb 52f
1:30 13 14 mph 1024.5mb 52f
1:24 10 13 mph 1024.4mb 52f
1:18 9 11 mph 1024.5mb 52f
1:12 8 10 mph 1024.5mb 52f
1:06 8 10 mph 1024.4mb 52f
1:00 9 13 mph 1024.2mb 52f
12:54 9 10 mph 1024.2mb 52f
12:48 10 11 mph 1024.4mb 53f
12:42 8 9 mph 1024.4mb 52f
12:36 7 9 mph 1024.5mb 53f
12:30 8 9 mph 1024.6mb 52f
12:24 8 10 mph 1024.6mb 52f
12:18 8 9 mph 1024.7mb 52f
12:12 8 10 mph 1024.9mb 52f
12:06 8 9 mph 1024.9mb 52f
12:00 8 9 mph 1024.8mb 52f
11:54 8 9 mph 1024.9mb 52f
11:48 8 9 mph 1025.1mb 52f
11:42 5 7 mph 1025.2mb 50f
11:36 6 8 mph 1025.3mb 49f
11:30 6 8 mph 1025.3mb 49f
11:24 6 8 mph 1025.4mb 48f
11:18 7 8 mph 1025.5mb 49f
11:12 5 6 mph 1025.8mb 49f
11:06 3 7 mph 1026mb 49f
11:00 7 9 mph 1026.3mb 48f
10:54 8 9 mph 1026.3mb 47f
10:48 8 9 mph 1026.4mb 47f
10:42 7 8 mph 1026.4mb 46f
10:36 7 8 mph 1026.4mb 46f
10:30 6 8 mph 1026.6mb 46f
10:24 7 10 mph 1026.7mb 46f
10:18 9 10 mph 1026.5mb 46f
10:12 9 10 mph 1026.6mb 45f
10:06 8 9 mph 1026.7mb 45f
10:00 7 10 mph 1026.8mb 45f
9:54 8 9 mph 1026.8mb 45f
9:48 7 8 mph 1026.7mb 45f
9:42 8 9 mph 1026.7mb 45f
9:36 7 10 mph 1026.7mb 45f
9:30 9 10 mph 1026.6mb 45f
9:24 9 10 mph 1026.7mb 45f
9:18 9 11 mph 1026.7mb 45f
9:12 10 11 mph 1026.7mb 44f
9:06 10 11 mph 1026.8mb 44f
9:00 9 11 mph 1026.9mb 45f
8:54 9 10 mph 1026.8mb 45f
8:48 8 9 mph 1026.7mb 45f
8:42 10 13 mph 1026.7mb 44f
8:36 14
mph
1026.5mb 44f
8:30 13 15 mph 1026.6mb 44f
8:24 13 14 mph 1026.7mb 44f
8:18 11 14 mph 1026.8mb 44f
8:12 11 13 mph 1026.7mb 44f
8:06 11 13 mph 1026.7mb 44f
8:00 9 10 mph 1026.8mb 44f
7:54 10 11 mph 1026.8mb 44f
7:48 11 13 mph 1026.2mb 44f
7:42 10 13 mph 1026.3mb 44f
7:36 13 14 mph 1026.4mb 44f
7:30 13 14 mph 1026.6mb 44f
7:24 11 14 mph 1026.7mb 44f
7:18 13 14 mph 1026.5mb 44f
7:12 11 13 mph 1026.5mb 44f
7:06 11 13 mph 1026.6mb 44f
7:00 11 13 mph 1026.8mb 44f
6:54 11 15 mph 1026.9mb 44f
6:48 15 16 mph 1026.6mb 44f
6:42 14 15 mph 1026.7mb 44f
6:36 14 15 mph 1026.7mb 44f
6:30 13 14 mph 1026.6mb 44f
6:24 11 14 mph 1026.8mb 44f
6:18 11 13 mph 1026.8mb 44f
6:12 11 14 mph 1026.7mb 44f
6:06 10 11 mph 1026.8mb 44f
6:00 11 13 mph 1026.8mb 44f
5:54 10 11 mph 1026.7mb 45f
5:48 10 14 mph 1026.8mb 45f
5:42 11 14 mph 1026.8mb 44f
5:36 11 13 mph 1026.9mb 44f
5:30 10 11 mph 1026.9mb 44f
5:24 10 11 mph 1027mb 44f
5:18 10 11 mph 1026.9mb 44f
5:12 11
mph
1026.8mb 44f
5:06 11 13 mph 1026.9mb 43f
5:00 10 13 mph 1027mb 43f
4:54 11 13 mph 1027mb 43f
4:48 13 14 mph 1027mb 43f
4:42 11 13 mph 1026.9mb 44f
4:36 11 13 mph 1027mb 43f
4:30 11
mph
1027mb 43f
4:24 10 11 mph 1027mb 43f
4:18 11
mph
1026.8mb 43f
4:12 11 13 mph 1026.8mb 44f
4:06 10 13 mph 1027mb 43f
4:00 10 11 mph 1026.9mb 43f
3:54 10 11 mph 1027.1mb 43f
3:48 10 11 mph 1027.2mb 43f
3:42 9 11 mph 1027.3mb 43f
3:36 9 10 mph 1027.4mb 43f
3:30 10
mph
1027.4mb 43f
3:24 8 10 mph 1027.4mb 43f
3:18 9 10 mph 1027.5mb 43f
3:12 9 10 mph 1027.6mb 43f
3:06 9 10 mph 1027.6mb 44f
3:00 8 9 mph 1027.7mb 44f
2:54 8
mph
1027.7mb 44f
2:48 8 10 mph 1027.8mb 44f
2:42 8 9 mph 1027.8mb 44f
2:36 8 9 mph 1027.7mb 43f
2:30 9 10 mph 1027.6mb 44f
2:24 8 9 mph 1027.6mb 44f
2:18 8 9 mph 1027.6mb 44f
2:12 8 9 mph 1027.5mb 44f
2:06 8 9 mph 1027.5mb 44f
2:00 8 9 mph 1027.6mb 44f
1:54 8 9 mph 1027.7mb 44f
1:48 8 9 mph 1027.9mb 44f
1:42 8 10 mph 1027.8mb 44f
1:36 9 10 mph 1027.7mb 44f
1:30 9 10 mph 1027.7mb 44f
1:24 7 8 mph 1027.9mb 45f
1:18 7 9 mph 1027.9mb 44f
1:12 8
mph
1027.9mb 44f
1:06 7 8 mph 1028mb 44f
1:00 8 9 mph 1028.1mb 44f
12:54 8 9 mph 1028.2mb 44f
12:48 8 9 mph 1028.2mb 44f
12:42 7 9 mph 1028.3mb 44f
12:36 7 8 mph 1028.2mb 45f
12:30 8 9 mph 1028.2mb 45f
12:24 8 9 mph 1028.1mb 45f
12:18 7 8 mph 1028.1mb 45f
12:12 7 9 mph 1028mb 45f
12:06 8 9 mph 1027.9mb 44f
12:00 9
mph
1027.9mb 44f
dom 11/23 11:54 8 9 mph 1027.9mb 45f
11:48 9 10 mph 1027.9mb 45f
11:42 8 9 mph 1027.9mb 44f
11:36 8 9 mph 1028mb 44f
11:30 8 9 mph 1027.8mb 44f
11:24 9 10 mph 1027.8mb 44f
11:18 9 10 mph 1027.7mb 44f
11:12 9 11 mph 1027.7mb 44f
11:06 10 11 mph 1027.6mb 45f
11:00 9 10 mph 1027.5mb 45f
10:54 8 9 mph 1027.6mb 45f
10:48 7 8 mph 1027.6mb 45f
10:42 8
mph
1027.6mb 45f
10:36 7 9 mph 1027.5mb 45f
10:30 7 9 mph 1027.4mb 45f
10:24 8 9 mph 1027.3mb 45f
10:18 7 8 mph 1027.3mb 45f
10:12 7 8 mph 1027.1mb 45f
10:06 8 9 mph 1027.1mb 45f
10:00 8
mph
1027.1mb 45f
9:54 6 7 mph 1027mb 46f
9:48 6 7 mph 1027mb 46f
9:42 6 7 mph 1026.9mb 45f
9:36 6 7 mph 1026.8mb 45f
9:30 6 8 mph 1026.7mb 45f
9:24 7 8 mph 1026.6mb 44f
9:18 7 8 mph 1026.5mb 44f
9:12 7 8 mph 1026.4mb 44f
9:06 6 9 mph 1026.4mb 44f
9:00 8 10 mph 1026.4mb 44f
8:54 6 9 mph 1026.5mb 45f
8:48 7 9 mph 1026.4mb 45f
8:42 8
mph
1026.4mb 45f
8:36 8
mph
1026.4mb 45f
8:30 6 7 mph 1026.3mb 45f
8:24 6 7 mph 1026.3mb 45f
8:18 6 7 mph 1026.3mb 45f
8:12 6 7 mph 1026.2mb 45f
8:06 6
mph
1026.2mb 45f
8:00 5
mph
1026.4mb 45f
7:54 5
mph
1026.5mb 45f
7:48 5 6 mph 1026.4mb 45f
7:42 6
mph
1026.5mb 45f
7:36 5 6 mph 1026.4mb 45f
7:30 6
mph
1026.3mb 46f
7:24 6 7 mph 1026.3mb 46f
7:18 6
mph
1026.3mb 46f
7:12 2
mph
1026.3mb 46f
7:06 2 5 mph 1026.2mb 45f
7:00 3 5 mph 1026.3mb 45f
6:54 1 2 mph 1026.3mb 45f
6:48 2 3 mph 1026.1mb 45f
6:42 2 3 mph 1026mb 45f
6:36 2
mph
1025.8mb 46f
6:30 1 3 mph 1025.7mb 46f
6:24 2 3 mph 1025.6mb 46f
6:18 3
mph
1025.6mb 46f
6:12 3 5 mph 1025.4mb 46f
6:06 3
mph
1025.3mb 47f
6:00 2 3 mph 1025.3mb 47f
5:54 2 3 mph 1025.3mb 47f
5:48 1 2 mph 1025.3mb 47f
5:42 2 5 mph 1025.3mb 47f
5:36 3 5 mph 1025.3mb 48f
5:30 2
mph
1025.1mb 49f
5:24 2
mph
1025mb 49f
5:18 2 3 mph 1025mb 49f
5:12 3 5 mph 1025.1mb 51f
5:06 5
mph
1025mb 51f
5:00 3 5 mph 1024.9mb 51f
4:54 5
mph
1024.8mb 52f
4:48 5 6 mph 1024.8mb 52f
4:42 5 7 mph 1024.7mb 52f
4:36 6 7 mph 1024.7mb 52f
4:30 5 6 mph 1024.4mb 52f
4:24 3 6 mph 1024.3mb 52f
4:18 5 7 mph 1024.3mb 52f
4:12 5 6 mph 1024.3mb 52f
4:06 3 5 mph 1024.2mb 53f
4:00 5 7 mph 1024.2mb 53f
3:48 8 9 mph 1024.4mb 53f
3:42 9 10 mph 1024.4mb 53f
3:36 10 13 mph 1024.4mb 54f
3:30 9 13 mph 1024.4mb 54f
3:24 10 14 mph 1024.2mb 54f
3:18 10 11 mph 1024.1mb 54f
3:12 7 14 mph 1024.2mb 54f
3:06 9 13 mph 1024.1mb 54f
3:00 10 14 mph 1024.1mb 54f
2:54 11 15 mph 1024mb 54f
2:48 10 16 mph 1024mb 54f
2:42 14 15 mph 1023.9mb 54f
2:36 13 15 mph 1023.9mb 54f
2:30 13 15 mph 1023.8mb 54f
2:24 17 21 mph 1023.8mb 54f
2:18 15 18 mph 1023.7mb 54f
2:12 15 16 mph 1023.7mb 54f
2:06 14 17 mph 1023.6mb 54f
2:00 14 20 mph 1023.4mb 54f
1:54 16 20 mph 1023.4mb 54f
1:48 14 18 mph 1023.4mb 54f
1:42 14 20 mph 1023.3mb 55f
1:36 13 20 mph 1023.3mb 55f
1:30 13 17 mph 1023.2mb 55f
1:24 14 16 mph 1023.1mb 55f
1:18 9 13 mph 1023.2mb 55f
1:12 9 13 mph 1023.3mb 54f
1:06 9 13 mph 1023.2mb 54f
1:00 9 13 mph 1023.2mb 54f
12:54 10 14 mph 1023.1mb 54f
12:48 11 15 mph 1023mb 55f
12:42 11 16 mph 1022.9mb 55f
12:36 10 16 mph 1023mb 54f
12:30 13 18 mph 1023mb 55f
12:24 11 16 mph 1022.9mb 55f
12:18 11 17 mph 1022.9mb 55f
12:12 11 15 mph 1022.8mb 54f
12:06 11 15 mph 1022.7mb 54f
11:54 13 16 mph 1022.8mb 54f
11:48 11 17 mph 1022.8mb 54f
11:42 13 17 mph 1022.7mb 54f
11:36 14 17 mph 1022.7mb 54f
11:30 15 20 mph 1022.7mb 54f
11:24 14 17 mph 1022.6mb 54f
11:18 14 18 mph 1022.7mb 54f
11:12 14 18 mph 1022.7mb 54f
11:06 13 18 mph 1022.6mb 54f
11:00 15 18 mph 1022.6mb 54f
10:54 14 18 mph 1022.6mb 54f
10:48 14 18 mph 1022.5mb 54f
10:42 15 20 mph 1022.4mb 53f
10:36 15 18 mph 1022.4mb 53f
10:30 15 21 mph 1022.3mb 53f
10:24 15 23 mph 1022.1mb 53f
10:18 16 21 mph 1022mb 53f
10:12 16 20 mph 1021.9mb 53f
10:06 14 25 mph 1021.8mb 52f
10:00 17 26 mph 1021.7mb 53f
9:54 17 28 mph 1021.6mb 53f
9:48 21 25 mph 1021.6mb 53f
9:42 16 24 mph 1021.4mb 52f
9:36 20 38 mph 1021.4mb 52f
9:30 33 45 mph 1020.8mb 51f
9:24 28 34 mph 1021.2mb 50f
9:18 14 36 mph 1021.2mb 47f
9:12 33 41 mph 1021.4mb 47f
9:06 5 17 mph 1020.6mb 54f
9:00 7 22 mph 1020.2mb 54f
8:54 6 22 mph 1020mb 54f
8:48 7 26 mph 1019.6mb 54f
8:42 20 31 mph 1019.7mb 54f
8:36 11 25 mph 1019.7mb 54f
8:30 11 24 mph 1019.8mb 54f
8:24 7 22 mph 1019.6mb 55f
8:18 9 31 mph 1019.6mb 54f
8:12 16 33 mph 1019.3mb 55f
8:06 23 32 mph 1019.1mb 54f
8:00 21 29 mph 1019.3mb 54f
7:54 22 33 mph 1019.6mb 54f
7:48 23 33 mph 1019.5mb 54f
7:42 24 33 mph 1019.6mb 54f
7:36 17 30 mph 1019.9mb 54f
7:30 22 31 mph 1019.8mb 54f
7:24 21 31 mph 1019.8mb 54f
7:18 25 34 mph 1019.8mb 54f
7:12 30 39 mph 1019.7mb 54f
7:06 26 34 mph 1019.8mb 54f
7:00 21 28 mph 1020.2mb 54f
6:54 25 32 mph 1020.1mb 54f
6:48 25 36 mph 1020mb 54f
6:42 28 34 mph 1020.2mb 54f
6:36 23 31 mph 1020.3mb 54f
6:30 20 25 mph 1020.4mb 53f
6:24 22 32 mph 1020.4mb 53f
6:18 23 31 mph 1020.3mb 53f
6:12 26 33 mph 1020.2mb 53f
6:06 23 31 mph 1020.3mb 53f
6:00 24 30 mph 1020.1mb 53f
5:54 24 29 mph 1020.2mb 53f
5:48 23 26 mph 1020.4mb 53f
5:42 21 28 mph 1020.8mb 53f
5:36 20 25 mph 1020.7mb 52f
5:30 21 25 mph 1020.7mb 53f